^^
Saratoga-Weather Station Historical Data
Daily Summary for February 14, 2020 Units:  Metric    English   Both
Daily Weekly Monthly Yearly Custom
  High: Low: Average:
Temperature: 9.8 °C 3.7 °C 6.1 °C
Dew Point: 6.3 °C 3.1 °C 4.5 °C
Humidity: 97% 76% 90%
Wind Speed: 11.1km/h 0km/h 0.6km/h
Wind Gust: 12.9km/h - -
Wind- - ESE
Pressure: 1010.8 hPa 1008.5 hPa -
Precipitation: 0.0 mm    
Historical Graphs
 
 
Tabular Data for February 14, 2020
Time Temperature Dew Point Pressure Wind Wind Speed Wind Gust Humidity Rainfall Rate (Hourly) solar
00:01 4.3 °C 3.7 °C 1010.8 hPa NE 3.2 km/h 3.2 km/h 96% 0.0 mm 0 W/m2
00:06 4.4 °C 3.8 °C 1010.8 hPa NE 1.4 km/h 4.8 km/h 96% 0.0 mm 0 W/m2
00:11 4.6 °C 4 °C 1010.5 hPa ENE 4.7 km/h 9.7 km/h 96% 0.0 mm 0 W/m2
00:16 4.7 °C 4.1 °C 1010.5 hPa NE 1.4 km/h 4.8 km/h 96% 0.0 mm 0 W/m2
00:21 4.8 °C 4.1 °C 1010.8 hPa NE 3.2 km/h 4.8 km/h 95% 0.0 mm 0 W/m2
00:26 4.8 °C 4.1 °C 1010.8 hPa Calm   1.6 km/h 95% 0.0 mm 0 W/m2
00:31 4.9 °C 4.2 °C 1010.5 hPa ENE 1.4 km/h 4.8 km/h 95% 0.0 mm 0 W/m2
00:36 4.9 °C 4.2 °C 1010.8 hPa Calm     95% 0.0 mm 0 W/m2
00:41 4.9 °C 4 °C 1010.8 hPa Calm   3.2 km/h 94% 0.0 mm 0 W/m2
00:46 4.9 °C 4 °C 1010.8 hPa Calm     94% 0.0 mm 0 W/m2
00:51 4.9 °C 4 °C 1010.5 hPa Calm   1.6 km/h 94% 0.0 mm 0 W/m2
00:56 4.9 °C 4 °C 1010.5 hPa Calm     94% 0.0 mm 0 W/m2
01:01 4.9 °C 4 °C 1010.5 hPa Calm     94% 0.0 mm 0 W/m2
01:06 4.8 °C 3.9 °C 1010.5 hPa Calm     94% 0.0 mm 0 W/m2
01:11 4.8 °C 3.9 °C 1010.5 hPa East 1.4 km/h 1.6 km/h 94% 0.0 mm 0 W/m2
01:16 4.8 °C 3.9 °C 1010.5 hPa Calm     94% 0.0 mm 0 W/m2
01:21 4.8 °C 3.9 °C 1010.5 hPa NE 1.4 km/h 3.2 km/h 94% 0.0 mm 0 W/m2
01:26 4.9 °C 4 °C 1010.5 hPa ENE 3.2 km/h 4.8 km/h 94% 0.0 mm 0 W/m2
01:31 5 °C 4.1 °C 1010.5 hPa Calm   3.2 km/h 94% 0.0 mm 0 W/m2
01:36 5.1 °C 4.1 °C 1010.5 hPa ENE 1.4 km/h 1.6 km/h 93% 0.0 mm 0 W/m2
01:41 5.1 °C 4.1 °C 1010.5 hPa Calm   1.6 km/h 93% 0.0 mm 0 W/m2
01:46 5.1 °C 4.1 °C 1010.2 hPa East 3.2 km/h 4.8 km/h 93% 0.0 mm 0 W/m2
01:52 5.1 °C 4.1 °C 1010.2 hPa East 1.4 km/h 3.2 km/h 93% 0.0 mm 0 W/m2
01:57 5.2 °C 4.2 °C 1010.2 hPa ENE 1.4 km/h 4.8 km/h 93% 0.0 mm 0 W/m2
02:02 5.2 °C 4.2 °C 1010.2 hPa Calm   1.6 km/h 93% 0.0 mm 0 W/m2
02:07 5.2 °C 4.2 °C 1010.2 hPa Calm   4.8 km/h 93% 0.0 mm 0 W/m2
02:12 5.2 °C 4.2 °C 1010.2 hPa Calm     93% 0.0 mm 0 W/m2
02:17 5.2 °C 4.2 °C 1010.2 hPa Calm     93% 0.0 mm 0 W/m2
02:22 5.1 °C 4.1 °C 1010.2 hPa Calm     93% 0.0 mm 0 W/m2
02:27 5 °C 4 °C 1010.2 hPa Calm     93% 0.0 mm 0 W/m2
02:32 4.9 °C 3.9 °C 1010.2 hPa Calm     93% 0.0 mm 0 W/m2
02:37 4.9 °C 3.9 °C 1010.5 hPa Calm     93% 0.0 mm 0 W/m2
02:42 4.9 °C 4 °C 1010.5 hPa ENE 1.4 km/h 1.6 km/h 94% 0.0 mm 0 W/m2
02:47 4.9 °C 4 °C 1010.5 hPa Calm     94% 0.0 mm 0 W/m2
02:52 4.9 °C 4 °C 1010.2 hPa Calm     94% 0.0 mm 0 W/m2
02:57 4.9 °C 4 °C 1010.2 hPa Calm   1.6 km/h 94% 0.0 mm 0 W/m2
03:02 4.9 °C 4 °C 1010.2 hPa Calm     94% 0.0 mm 0 W/m2
03:07 4.9 °C 4 °C 1010.2 hPa ESE 1.4 km/h 4.8 km/h 94% 0.0 mm 0 W/m2
03:12 4.8 °C 3.9 °C 1010.2 hPa Calm     94% 0.0 mm 0 W/m2
03:17 4.8 °C 4.1 °C 1010.2 hPa ESE 1.4 km/h 4.8 km/h 95% 0.0 mm 0 W/m2
03:22 4.8 °C 4.1 °C 1010.2 hPa ESE 1.4 km/h 3.2 km/h 95% 0.0 mm 0 W/m2
03:27 4.8 °C 4.1 °C 1010.2 hPa Calm   4.8 km/h 95% 0.0 mm 0 W/m2
03:32 4.8 °C 4.1 °C 1010.2 hPa Calm     95% 0.0 mm 0 W/m2
03:37 4.8 °C 4.1 °C 1010.2 hPa Calm     95% 0.0 mm 0 W/m2
03:42 4.8 °C 4.1 °C 1010.2 hPa Calm     95% 0.0 mm 0 W/m2
03:47 4.8 °C 4.1 °C 1010.2 hPa Calm     95% 0.0 mm 0 W/m2
03:52 4.8 °C 4.1 °C 1009.8 hPa Calm     95% 0.0 mm 0 W/m2
03:57 4.8 °C 4.1 °C 1009.8 hPa Calm     95% 0.0 mm 0 W/m2
04:02 4.8 °C 4.1 °C 1009.8 hPa Calm     95% 0.0 mm 0 W/m2
04:07 4.8 °C 4.1 °C 1009.8 hPa Calm     95% 0.0 mm 0 W/m2
04:12 4.8 °C 4.1 °C 1009.8 hPa Calm     95% 0.0 mm 0 W/m2
04:17 4.8 °C 4.1 °C 1009.8 hPa Calm     95% 0.0 mm 0 W/m2
04:22 4.8 °C 4.1 °C 1009.8 hPa Calm     95% 0.0 mm 0 W/m2
04:27 4.8 °C 4.1 °C 1009.5 hPa Calm     95% 0.0 mm 0 W/m2
04:32 4.9 °C 4.3 °C 1009.5 hPa Calm     96% 0.0 mm 0 W/m2
04:37 4.9 °C 4.3 °C 1009.5 hPa Calm     96% 0.0 mm 0 W/m2
04:42 4.9 °C 4.3 °C 1009.8 hPa Calm     96% 0.0 mm 0 W/m2
04:47 4.9 °C 4.3 °C 1009.8 hPa Calm     96% 0.0 mm 0 W/m2
04:52 4.9 °C 4.3 °C 1009.8 hPa Calm     96% 0.0 mm 0 W/m2
04:57 4.9 °C 4.3 °C 1009.8 hPa Calm     96% 0.0 mm 0 W/m2
05:02 4.9 °C 4.3 °C 1009.8 hPa Calm     96% 0.0 mm 0 W/m2
05:07 4.9 °C 4.3 °C 1009.8 hPa Calm     96% 0.0 mm 0 W/m2
05:12 4.9 °C 4.3 °C 1009.8 hPa Calm     96% 0.0 mm 0 W/m2
05:17 4.9 °C 4.3 °C 1009.8 hPa Calm     96% 0.0 mm 0 W/m2
05:22 5 °C 4.4 °C 1009.8 hPa Calm     96% 0.0 mm 0 W/m2
05:27 5 °C 4.4 °C 1009.8 hPa Calm     96% 0.0 mm 0 W/m2
05:32 5 °C 4.4 °C 1009.8 hPa Calm     96% 0.0 mm 0 W/m2
05:37 5 °C 4.4 °C 1009.8 hPa Calm     96% 0.0 mm 0 W/m2
05:42 5 °C 4.4 °C 1009.8 hPa Calm     96% 0.0 mm 0 W/m2
05:47 5 °C 4.4 °C 1009.8 hPa Calm     96% 0.0 mm 0 W/m2
05:52 5 °C 4.4 °C 1009.8 hPa Calm     96% 0.0 mm 0 W/m2
05:57 4.9 °C 4.3 °C 1009.8 hPa Calm     96% 0.0 mm 0 W/m2
06:02 4.9 °C 4.3 °C 1009.5 hPa Calm     96% 0.0 mm 0 W/m2
06:07 4.8 °C 4.2 °C 1009.8 hPa Calm     96% 0.0 mm 0 W/m2
06:12 4.8 °C 4.2 °C 1009.5 hPa Calm     96% 0.0 mm 0 W/m2
06:17 4.8 °C 4.2 °C 1009.5 hPa Calm     96% 0.0 mm 0 W/m2
06:22 4.7 °C 4.1 °C 1009.5 hPa Calm     96% 0.0 mm 0 W/m2
06:27 4.7 °C 4.1 °C 1009.5 hPa Calm     96% 0.0 mm 0 W/m2
06:32 4.7 °C 4.1 °C 1009.5 hPa Calm     96% 0.0 mm 0 W/m2
06:37 4.6 °C 4 °C 1009.8 hPa Calm     96% 0.0 mm 0 W/m2
06:42 4.5 °C 3.9 °C 1009.8 hPa Calm     96% 0.0 mm 0 W/m2
06:47 4.4 °C 3.8 °C 1009.5 hPa Calm     96% 0.0 mm 0 W/m2
06:52 4.4 °C 3.8 °C 1009.8 hPa Calm     96% 0.0 mm 0 W/m2
06:57 4.4 °C 3.8 °C 1009.8 hPa Calm     96% 0.0 mm 0 W/m2
07:02 4.4 °C 3.8 °C 1009.8 hPa Calm     96% 0.0 mm 0 W/m2
07:07 4.4 °C 3.8 °C 1009.8 hPa Calm     96% 0.0 mm 0 W/m2
07:12 4.4 °C 3.8 °C 1009.8 hPa Calm     96% 0.0 mm 0 W/m2
07:17 4.3 °C 3.7 °C 1009.8 hPa Calm     96% 0.0 mm 0 W/m2
07:22 4.3 °C 3.7 °C 1009.8 hPa Calm     96% 0.0 mm 0 W/m2
07:27 4.3 °C 3.7 °C 1009.8 hPa Calm     96% 0.0 mm 0 W/m2
07:32 4.2 °C 3.6 °C 1009.8 hPa Calm     96% 0.0 mm 0 W/m2
07:37 4.2 °C 3.6 °C 1009.8 hPa Calm     96% 0.0 mm 0 W/m2
07:42 4.1 °C 3.5 °C 1010.2 hPa Calm     96% 0.0 mm 0 W/m2
07:47 3.9 °C 3.3 °C 1009.8 hPa Calm     96% 0.0 mm 0 W/m2
07:52 3.8 °C 3.2 °C 1010.2 hPa Calm     96% 0.0 mm 0 W/m2
07:57 3.8 °C 3.2 °C 1009.8 hPa Calm     96% 0.0 mm 0 W/m2
08:02 3.7 °C 3.1 °C 1010.2 hPa Calm   1.6 km/h 96% 0.0 mm 0 W/m2
08:07 3.7 °C 3.1 °C 1010.2 hPa Calm   1.6 km/h 96% 0.0 mm 0 W/m2
08:12 3.7 °C 3.1 °C 1010.2 hPa Calm     96% 0.0 mm 0 W/m2
08:17 3.7 °C 3.1 °C 1010.2 hPa Calm     96% 0.0 mm 0 W/m2
08:22 3.7 °C 3.1 °C 1010.2 hPa Calm     96% 0.0 mm 0 W/m2
08:27 3.8 °C 3.2 °C 1010.2 hPa Calm     96% 0.0 mm 7 W/m2
08:33 3.9 °C 3.3 °C 1010.2 hPa Calm     96% 0.0 mm 7 W/m2
08:38 4 °C 3.6 °C 1010.2 hPa Calm     97% 0.0 mm 11 W/m2
08:43 4.1 °C 3.7 °C 1010.2 hPa Calm     97% 0.0 mm 12 W/m2
08:48 4.2 °C 3.8 °C 1010.2 hPa Calm     97% 0.0 mm 16 W/m2
08:53 4.3 °C 3.9 °C 1010.2 hPa Calm     97% 0.0 mm 18 W/m2
08:58 4.3 °C 3.9 °C 1010.2 hPa Calm     97% 0.0 mm 18 W/m2
09:03 4.4 °C 4 °C 1010.5 hPa Calm     97% 0.0 mm 19 W/m2
09:08 4.6 °C 4.2 °C 1010.2 hPa Calm     97% 0.0 mm 19 W/m2
09:13 4.6 °C 4.2 °C 1010.5 hPa Calm     97% 0.0 mm 18 W/m2
09:18 4.7 °C 4.3 °C 1010.5 hPa Calm     97% 0.0 mm 25 W/m2
09:23 4.8 °C 4.4 °C 1010.5 hPa Calm     97% 0.0 mm 25 W/m2
09:28 4.8 °C 4.4 °C 1010.5 hPa Calm     97% 0.0 mm 25 W/m2
09:33 4.8 °C 4.4 °C 1010.5 hPa Calm     97% 0.0 mm 39 W/m2
09:38 4.8 °C 4.4 °C 1010.5 hPa Calm     97% 0.0 mm 49 W/m2
09:43 4.9 °C 4.5 °C 1010.5 hPa Calm     97% 0.0 mm 69 W/m2
09:48 4.9 °C 4.5 °C 1010.5 hPa Calm     97% 0.0 mm 76 W/m2
09:53 5.1 °C 4.7 °C 1010.8 hPa Calm     97% 0.0 mm 81 W/m2
09:58 5.2 °C 4.8 °C 1010.8 hPa Calm     97% 0.0 mm 83 W/m2
10:03 5.3 °C 4.9 °C 1010.8 hPa Calm     97% 0.0 mm 98 W/m2
10:08 5.4 °C 5 °C 1010.8 hPa Calm     97% 0.0 mm 107 W/m2
10:13 5.6 °C 5.2 °C 1010.8 hPa Calm     97% 0.0 mm 104 W/m2
10:18 5.7 °C 5.3 °C 1010.8 hPa Calm   1.6 km/h 97% 0.0 mm 83 W/m2
10:23 5.8 °C 5.4 °C 1010.8 hPa Calm   4.8 km/h 97% 0.0 mm 77 W/m2
10:28 5.9 °C 5.5 °C 1010.8 hPa ESE 3.2 km/h 4.8 km/h 97% 0.0 mm 84 W/m2
10:33 6.1 °C 5.7 °C 1010.8 hPa ESE 3.2 km/h 4.8 km/h 97% 0.0 mm 95 W/m2
10:38 6.3 °C 5.7 °C 1010.8 hPa ESE 1.4 km/h 6.4 km/h 96% 0.0 mm 116 W/m2
10:43 6.6 °C 5.9 °C 1010.8 hPa ESE 4.7 km/h 4.8 km/h 95% 0.0 mm 116 W/m2
10:48 6.8 °C 5.7 °C 1010.8 hPa ESE 1.4 km/h 3.2 km/h 93% 0.0 mm 107 W/m2
10:53 7.1 °C 5.7 °C 1010.8 hPa East 1.4 km/h 9.7 km/h 91% 0.0 mm 91 W/m2
10:58 7.2 °C 5.5 °C 1010.8 hPa ENE 1.4 km/h 6.4 km/h 89% 0.0 mm 86 W/m2
11:03 7.3 °C 5.6 °C 1010.8 hPa Calm   3.2 km/h 89% 0.0 mm 93 W/m2
11:08 7.4 °C 5.5 °C 1010.8 hPa ESE 1.4 km/h 6.4 km/h 88% 0.0 mm 105 W/m2
11:13 7.5 °C 5.5 °C 1010.8 hPa NE 1.4 km/h 4.8 km/h 87% 0.0 mm 95 W/m2
11:18 7.6 °C 5.4 °C 1010.8 hPa ESE 3.2 km/h 6.4 km/h 86% 0.0 mm 90 W/m2
11:23 7.7 °C 5.5 °C 1010.5 hPa East 1.4 km/h 8 km/h 86% 0.0 mm 97 W/m2
11:28 7.7 °C 5.3 °C 1010.5 hPa ESE 3.2 km/h 4.8 km/h 85% 0.0 mm 84 W/m2
11:33 7.8 °C 5.4 °C 1010.5 hPa ESE 6.4 km/h 6.4 km/h 85% 0.0 mm 104 W/m2
11:38 7.9 °C 5.4 °C 1010.5 hPa NE 1.4 km/h 3.2 km/h 84% 0.0 mm 118 W/m2
11:43 8.1 °C 5.4 °C 1010.5 hPa SE 3.2 km/h 6.4 km/h 83% 0.0 mm 114 W/m2
11:48 8.3 °C 5.4 °C 1010.5 hPa Calm   3.2 km/h 82% 0.0 mm 102 W/m2
11:53 8.5 °C 5.6 °C 1010.5 hPa East 3.2 km/h 4.8 km/h 82% 0.0 mm 97 W/m2
11:58 8.6 °C 5.5 °C 1010.2 hPa Calm   6.4 km/h 81% 0.0 mm 98 W/m2
12:03 8.7 °C 5.6 °C 1010.5 hPa ENE 3.2 km/h 6.4 km/h 81% 0.0 mm 95 W/m2
12:08 8.8 °C 5.5 °C 1010.2 hPa ESE 3.2 km/h 6.4 km/h 80% 0.0 mm 102 W/m2
12:13 8.9 °C 5.6 °C 1010.2 hPa East 1.4 km/h 4.8 km/h 80% 0.0 mm 111 W/m2
12:18 9 °C 5.6 °C 1010.2 hPa East 3.2 km/h 3.2 km/h 79% 0.0 mm 118 W/m2
12:23 9.1 °C 5.5 °C 1010.2 hPa SE 4.7 km/h 11.3 km/h 78% 0.0 mm 107 W/m2
12:28 9.2 °C 5.6 °C 1010.2 hPa ESE 4.7 km/h 9.7 km/h 78% 0.0 mm 97 W/m2
12:33 9.3 °C 5.7 °C 1009.8 hPa ESE 3.2 km/h 11.3 km/h 78% 0.0 mm 88 W/m2
12:38 9.3 °C 5.8 °C 1009.8 hPa East 1.4 km/h 4.8 km/h 79% 0.0 mm 98 W/m2
12:43 9.3 °C 5.8 °C 1010.2 hPa Calm   9.7 km/h 79% 0.0 mm 107 W/m2
12:48 9.4 °C 5.8 °C 1009.8 hPa ENE 3.2 km/h 6.4 km/h 78% 0.0 mm 113 W/m2
12:53 9.6 °C 6 °C 1009.8 hPa ESE 1.4 km/h 8 km/h 78% 0.0 mm 111 W/m2
12:58 9.7 °C 5.9 °C 1009.8 hPa ESE 3.2 km/h 9.7 km/h 77% 0.0 mm 102 W/m2
13:03 9.8 °C 6 °C 1009.8 hPa ESE 9.7 km/h 12.9 km/h 77% 0.0 mm 91 W/m2
13:08 9.8 °C 5.8 °C 1009.5 hPa ESE 11.1 km/h 11.3 km/h 76% 0.0 mm 86 W/m2
13:13 9.8 °C 5.8 °C 1009.8 hPa ESE 1.4 km/h 12.9 km/h 76% 0.0 mm 84 W/m2
13:18 9.8 °C 6 °C 1009.8 hPa Calm   4.8 km/h 77% 0.0 mm 90 W/m2
13:23 9.7 °C 6.2 °C 1009.8 hPa ENE 3.2 km/h 4.8 km/h 79% 0.0 mm 83 W/m2
13:29 9.7 °C 6 °C 1009.8 hPa Calm   3.2 km/h 78% 0.0 mm 79 W/m2
13:34 9.7 °C 6 °C 1009.8 hPa SSE 1.4 km/h 3.2 km/h 78% 0.0 mm 79 W/m2
13:39 9.7 °C 6.2 °C 1009.8 hPa Calm   1.6 km/h 79% 0.0 mm 76 W/m2
13:44 9.6 °C 6 °C 1009.8 hPa ESE 1.4 km/h 4.8 km/h 78% 0.0 mm 69 W/m2
13:49 9.6 °C 6 °C 1009.8 hPa East 1.4 km/h 3.2 km/h 78% 0.0 mm 62 W/m2
13:54 9.6 °C 6 °C 1009.8 hPa Calm   1.6 km/h 78% 0.0 mm 56 W/m2
13:59 9.6 °C 6 °C 1010.2 hPa Calm   1.6 km/h 78% 0.0 mm 54 W/m2
14:04 9.5 °C 6 °C 1009.8 hPa Calm   1.6 km/h 79% 0.0 mm 56 W/m2
14:09 9.4 °C 6.3 °C 1009.8 hPa Calm     81% 0.0 mm 62 W/m2
14:14 9.3 °C 6 °C 1009.8 hPa ESE 1.4 km/h 3.2 km/h 80% 0.0 mm 79 W/m2
14:19 9.2 °C 6.1 °C 1009.8 hPa ESE 3.2 km/h 3.2 km/h 81% 0.0 mm 93 W/m2
14:24 9.2 °C 5.9 °C 1009.8 hPa Calm   3.2 km/h 80% 0.0 mm 97 W/m2
14:29 9.2 °C 5.7 °C 1009.5 hPa ESE 4.7 km/h 6.4 km/h 79% 0.0 mm 86 W/m2
14:34 9.3 °C 5.8 °C 1009.5 hPa ESE 1.4 km/h 4.8 km/h 79% 0.0 mm 67 W/m2
14:39 9.3 °C 5.8 °C 1009.5 hPa Calm   6.4 km/h 79% 0.0 mm 56 W/m2
14:44 9.3 °C 5.8 °C 1009.5 hPa Calm   3.2 km/h 79% 0.0 mm 56 W/m2
14:49 9.1 °C 5.7 °C 1009.5 hPa East 1.4 km/h 4.8 km/h 79% 0.0 mm 54 W/m2
14:54 9.1 °C 5.8 °C 1009.5 hPa Calm   3.2 km/h 80% 0.0 mm 62 W/m2
14:59 8.9 °C 5.6 °C 1009.5 hPa Calm     80% 0.0 mm 67 W/m2
15:04 8.9 °C 5.8 °C 1009.5 hPa ESE 1.4 km/h 1.6 km/h 81% 0.0 mm 63 W/m2
15:09 8.8 °C 5.7 °C 1009.5 hPa ESE 3.2 km/h 3.2 km/h 81% 0.0 mm 56 W/m2
15:14 8.8 °C 5.5 °C 1009.5 hPa SE 1.4 km/h 4.8 km/h 80% 0.0 mm 51 W/m2
15:19 8.8 °C 5.5 °C 1009.8 hPa East 1.4 km/h 3.2 km/h 80% 0.0 mm 53 W/m2
15:24 8.8 °C 5.5 °C 1009.5 hPa ESE 1.4 km/h 1.6 km/h 80% 0.0 mm 53 W/m2
15:29 8.8 °C 5.5 °C 1009.5 hPa ESE 1.4 km/h 3.2 km/h 80% 0.0 mm 49 W/m2
15:34 8.8 °C 5.5 °C 1009.5 hPa Calm   4.8 km/h 80% 0.0 mm 46 W/m2
15:39 8.8 °C 5.5 °C 1009.5 hPa ESE 1.4 km/h 3.2 km/h 80% 0.0 mm 37 W/m2
15:44 8.7 °C 5.4 °C 1009.1 hPa ESE 1.4 km/h 1.6 km/h 80% 0.0 mm 25 W/m2
15:49 8.7 °C 5.6 °C 1009.1 hPa Calm     81% 0.0 mm 19 W/m2
15:54 8.5 °C 5.4 °C 1009.1 hPa Calm   1.6 km/h 81% 0.0 mm 18 W/m2
15:59 8.3 °C 5.4 °C 1009.1 hPa Calm   1.6 km/h 82% 0.0 mm 14 W/m2
16:04 8.2 °C 5.5 °C 1009.1 hPa Calm   1.6 km/h 83% 0.0 mm 12 W/m2
16:09 8 °C 5.5 °C 1009.1 hPa Calm     84% 0.0 mm 11 W/m2
16:14 7.8 °C 5.3 °C 1009.1 hPa SSE 1.4 km/h 1.6 km/h 84% 0.0 mm 9 W/m2
16:19 7.6 °C 5.2 °C 1009.1 hPa Calm   1.6 km/h 85% 0.0 mm 7 W/m2
16:24 7.4 °C 5 °C 1009.1 hPa South 1.4 km/h 1.6 km/h 85% 0.0 mm 5 W/m2
16:29 7.3 °C 4.9 °C 1009.1 hPa Calm   1.6 km/h 85% 0.0 mm 0 W/m2
16:34 7.1 °C 4.7 °C 1009.1 hPa Calm   1.6 km/h 85% 0.0 mm 0 W/m2
16:39 7.1 °C 4.9 °C 1009.1 hPa Calm     86% 0.0 mm 0 W/m2
16:44 7 °C 4.8 °C 1009.1 hPa Calm     86% 0.0 mm 0 W/m2
16:49 6.9 °C 4.7 °C 1009.5 hPa SSE 1.4 km/h 1.6 km/h 86% 0.0 mm 0 W/m2
16:54 6.9 °C 4.7 °C 1009.5 hPa Calm   1.6 km/h 86% 0.0 mm 0 W/m2
16:59 6.9 °C 4.9 °C 1009.5 hPa Calm     87% 0.0 mm 0 W/m2
17:04 6.8 °C 4.8 °C 1009.5 hPa ESE 3.2 km/h 4.8 km/h 87% 0.0 mm 0 W/m2
17:09 6.8 °C 4.8 °C 1009.1 hPa Calm     87% 0.0 mm 0 W/m2
17:14 6.8 °C 4.8 °C 1009.1 hPa Calm   4.8 km/h 87% 0.0 mm 0 W/m2
17:19 6.8 °C 4.8 °C 1009.1 hPa Calm   3.2 km/h 87% 0.0 mm 0 W/m2
17:24 6.8 °C 4.8 °C 1009.1 hPa Calm   3.2 km/h 87% 0.0 mm 0 W/m2
17:29 6.8 °C 4.5 °C 1009.1 hPa ESE 1.4 km/h 4.8 km/h 85% 0.0 mm 0 W/m2
17:34 6.8 °C 4.5 °C 1008.8 hPa Calm   1.6 km/h 85% 0.0 mm 0 W/m2
17:39 6.8 °C 4.5 °C 1008.8 hPa Calm   1.6 km/h 85% 0.0 mm 0 W/m2
17:44 6.8 °C 4.5 °C 1008.8 hPa Calm   3.2 km/h 85% 0.0 mm 0 W/m2
17:49 6.8 °C 4.3 °C 1008.8 hPa East 3.2 km/h 4.8 km/h 84% 0.0 mm 0 W/m2
17:54 6.8 °C 4.3 °C 1009.1 hPa Calm   3.2 km/h 84% 0.0 mm 0 W/m2
17:59 6.9 °C 4.2 °C 1009.1 hPa Calm   1.6 km/h 83% 0.0 mm 0 W/m2
18:04 7 °C 4.5 °C 1009.1 hPa Calm   1.6 km/h 84% 0.0 mm 0 W/m2
18:09 7 °C 4.5 °C 1009.1 hPa Calm     84% 0.0 mm 0 W/m2
18:14 6.9 °C 4.4 °C 1009.1 hPa Calm     84% 0.0 mm 0 W/m2
18:19 6.9 °C 4.4 °C 1009.1 hPa Calm   1.6 km/h 84% 0.0 mm 0 W/m2
18:24 6.9 °C 4.6 °C 1009.1 hPa Calm     85% 0.0 mm 0 W/m2
18:29 6.8 °C 4.5 °C 1009.1 hPa Calm     85% 0.0 mm 0 W/m2
18:34 6.8 °C 4.5 °C 1009.1 hPa South 1.4 km/h 4.8 km/h 85% 0.0 mm 0 W/m2
18:39 6.8 °C 4.5 °C 1009.1 hPa South 1.4 km/h 1.6 km/h 85% 0.0 mm 0 W/m2
18:44 6.8 °C 4.3 °C 1009.1 hPa Calm   1.6 km/h 84% 0.0 mm 0 W/m2
18:49 6.8 °C 4.5 °C 1009.1 hPa Calm     85% 0.0 mm 0 W/m2
18:54 6.7 °C 4.4 °C 1009.1 hPa Calm   1.6 km/h 85% 0.0 mm 0 W/m2
18:59 6.6 °C 4.3 °C 1009.5 hPa Calm     85% 0.0 mm 0 W/m2
19:04 6.6 °C 4.4 °C 1009.5 hPa Calm     86% 0.0 mm 0 W/m2
19:09 6.4 °C 4.2 °C 1009.5 hPa Calm     86% 0.0 mm 0 W/m2
19:14 6.4 °C 4.2 °C 1009.1 hPa Calm     86% 0.0 mm 0 W/m2
19:19 6.3 °C 4.1 °C 1009.5 hPa Calm     86% 0.0 mm 0 W/m2
19:24 6.2 °C 4 °C 1009.1 hPa Calm     86% 0.0 mm 0 W/m2
19:29 6.2 °C 4.2 °C 1009.5 hPa Calm     87% 0.0 mm 0 W/m2
19:34 6.1 °C 4.1 °C 1009.5 hPa Calm     87% 0.0 mm 0 W/m2
19:39 6.1 °C 4.1 °C 1009.1 hPa Calm     87% 0.0 mm 0 W/m2
19:44 6.1 °C 4.3 °C 1009.1 hPa Calm     88% 0.0 mm 0 W/m2
19:50 6 °C 4.2 °C 1009.1 hPa Calm     88% 0.0 mm 0 W/m2
19:55 6 °C 4.2 °C 1009.1 hPa Calm     88% 0.0 mm 0 W/m2
20:00 5.9 °C 4.1 °C 1009.1 hPa Calm     88% 0.0 mm 0 W/m2
20:05 5.9 °C 4.1 °C 1009.1 hPa Calm     88% 0.0 mm 0 W/m2
20:10 5.8 °C 4 °C 1009.1 hPa Calm     88% 0.0 mm 0 W/m2
20:15 5.8 °C 4.1 °C 1008.8 hPa Calm     89% 0.0 mm 0 W/m2
20:20 5.8 °C 4.1 °C 1008.8 hPa Calm     89% 0.0 mm 0 W/m2
20:25 5.8 °C 4.1 °C 1008.8 hPa Calm     89% 0.0 mm 0 W/m2
20:30 5.8 °C 4.1 °C 1008.8 hPa Calm     89% 0.0 mm 0 W/m2
20:35 5.7 °C 4 °C 1008.8 hPa Calm     89% 0.0 mm 0 W/m2
20:40 5.7 °C 4 °C 1008.8 hPa Calm     89% 0.0 mm 0 W/m2
20:45 5.7 °C 4 °C 1008.8 hPa Calm     89% 0.0 mm 0 W/m2
20:50 5.6 °C 3.9 °C 1008.8 hPa Calm     89% 0.0 mm 0 W/m2
20:55 5.5 °C 3.8 °C 1008.8 hPa Calm     89% 0.0 mm 0 W/m2
21:00 5.4 °C 3.9 °C 1008.8 hPa Calm     90% 0.0 mm 0 W/m2
21:05 5.4 °C 3.9 °C 1008.8 hPa South 1.4 km/h 1.6 km/h 90% 0.0 mm 0 W/m2
21:10 5.3 °C 3.8 °C 1008.8 hPa Calm   1.6 km/h 90% 0.0 mm 0 W/m2
21:15 5.3 °C 3.8 °C 1008.8 hPa Calm     90% 0.0 mm 0 W/m2
21:20 5.3 °C 4 °C 1008.8 hPa Calm   3.2 km/h 91% 0.0 mm 0 W/m2
21:25 5.3 °C 4 °C 1008.8 hPa Calm   1.6 km/h 91% 0.0 mm 0 W/m2
21:30 5.4 °C 4 °C 1008.8 hPa Calm   3.2 km/h 91% 0.0 mm 0 W/m2
21:35 5.4 °C 4 °C 1008.8 hPa Calm   1.6 km/h 91% 0.0 mm 0 W/m2
21:40 5.4 °C 4 °C 1008.5 hPa Calm     91% 0.0 mm 0 W/m2
21:45 5.4 °C 4 °C 1008.5 hPa Calm     91% 0.0 mm 0 W/m2
21:50 5.5 °C 4.1 °C 1008.5 hPa Calm   1.6 km/h 91% 0.0 mm 0 W/m2
21:55 5.5 °C 4.1 °C 1008.5 hPa Calm     91% 0.0 mm 0 W/m2
22:00 5.6 °C 4.2 °C 1008.8 hPa Calm     91% 0.0 mm 0 W/m2
22:05 5.6 °C 4.2 °C 1008.8 hPa Calm     91% 0.0 mm 0 W/m2
22:10 5.6 °C 4.2 °C 1008.8 hPa Calm   1.6 km/h 91% 0.0 mm 0 W/m2
22:15 5.6 °C 4.2 °C 1008.8 hPa Calm     91% 0.0 mm 0 W/m2
22:20 5.6 °C 4.2 °C 1008.8 hPa Calm   1.6 km/h 91% 0.0 mm 0 W/m2
22:25 5.7 °C 4.3 °C 1008.8 hPa Calm     91% 0.0 mm 0 W/m2
22:30 5.7 °C 4.3 °C 1008.8 hPa Calm     91% 0.0 mm 0 W/m2
22:35 5.7 °C 4.3 °C 1008.8 hPa Calm     91% 0.0 mm 0 W/m2
22:40 5.7 °C 4.3 °C 1008.8 hPa Calm     91% 0.0 mm 0 W/m2
22:45 5.7 °C 4.3 °C 1008.8 hPa Calm     91% 0.0 mm 0 W/m2
22:50 5.8 °C 4.4 °C 1009.1 hPa Calm     91% 0.0 mm 0 W/m2
22:55 5.8 °C 4.4 °C 1009.1 hPa Calm     91% 0.0 mm 0 W/m2
23:00 5.8 °C 4.4 °C 1009.1 hPa Calm     91% 0.0 mm 0 W/m2
23:05 5.8 °C 4.4 °C 1009.1 hPa Calm     91% 0.0 mm 0 W/m2
23:10 5.7 °C 4.3 °C 1009.1 hPa Calm     91% 0.0 mm 0 W/m2
23:15 5.8 °C 4.4 °C 1009.1 hPa Calm     91% 0.0 mm 0 W/m2
23:20 5.8 °C 4.4 °C 1009.1 hPa Calm     91% 0.0 mm 0 W/m2
23:25 5.8 °C 4.6 °C 1009.1 hPa Calm     92% 0.0 mm 0 W/m2
23:30 5.8 °C 4.4 °C 1009.1 hPa Calm     91% 0.0 mm 0 W/m2
23:35 5.8 °C 4.4 °C 1009.5 hPa Calm     91% 0.0 mm 0 W/m2
23:40 5.8 °C 4.4 °C 1009.5 hPa Calm     91% 0.0 mm 0 W/m2
23:45 5.8 °C 4.4 °C 1009.5 hPa Calm     91% 0.0 mm 0 W/m2
23:50 5.8 °C 4.6 °C 1009.5 hPa Calm     92% 0.0 mm 0 W/m2
23:55 5.8 °C 4.6 °C 1009.5 hPa Calm     92% 0.0 mm 0 W/m2
Juneau County Weather
Compliments of Weather Underground - 4 mb